sensor_id;sensor_type;location;lat;lon;timestamp;P1;durP1;ratioP1;P2;durP2;ratioP2
30605;SDS011;17371;51.328;3.860;2022-10-04T00:00:24;30.33;;;14.93;;
30605;SDS011;17371;51.328;3.860;2022-10-04T00:02:52;30.02;;;14.40;;
30605;SDS011;17371;51.328;3.860;2022-10-04T00:05:21;31.48;;;14.95;;
30605;SDS011;17371;51.328;3.860;2022-10-04T00:07:49;32.20;;;14.70;;
30605;SDS011;17371;51.328;3.860;2022-10-04T00:10:17;33.40;;;15.10;;
30605;SDS011;17371;51.328;3.860;2022-10-04T00:12:45;29.75;;;14.48;;
30605;SDS011;17371;51.328;3.860;2022-10-04T00:15:16;29.58;;;14.40;;
30605;SDS011;17371;51.328;3.860;2022-10-04T00:17:43;41.72;;;14.48;;
30605;SDS011;17371;51.328;3.860;2022-10-04T00:23:27;35.55;;;14.60;;
30605;SDS011;17371;51.328;3.860;2022-10-04T00:25:55;30.38;;;15.02;;
30605;SDS011;17371;51.328;3.860;2022-10-04T00:28:40;31.20;;;13.73;;
30605;SDS011;17371;51.328;3.860;2022-10-04T00:31:12;30.10;;;13.68;;
30605;SDS011;17371;51.328;3.860;2022-10-04T00:33:43;29.42;;;15.35;;
30605;SDS011;17371;51.328;3.860;2022-10-04T00:39:12;29.65;;;14.63;;
30605;SDS011;17371;51.328;3.860;2022-10-04T00:41:55;26.07;;;13.80;;
30605;SDS011;17371;51.328;3.860;2022-10-04T00:44:23;25.90;;;13.65;;
30605;SDS011;17371;51.328;3.860;2022-10-04T00:46:52;28.52;;;13.25;;
30605;SDS011;17371;51.328;3.860;2022-10-04T00:49:19;26.27;;;14.35;;
30605;SDS011;17371;51.328;3.860;2022-10-04T00:51:49;29.67;;;14.73;;
30605;SDS011;17371;51.328;3.860;2022-10-04T00:54:19;27.33;;;14.63;;
30605;SDS011;17371;51.328;3.860;2022-10-04T00:56:48;35.25;;;14.75;;
30605;SDS011;17371;51.328;3.860;2022-10-04T00:59:32;29.73;;;14.50;;
30605;SDS011;17371;51.328;3.860;2022-10-04T01:02:02;25.08;;;15.65;;
30605;SDS011;17371;51.328;3.860;2022-10-04T01:04:35;38.13;;;16.73;;
30605;SDS011;17371;51.328;3.860;2022-10-04T01:07:05;35.40;;;18.60;;
30605;SDS011;17371;51.328;3.860;2022-10-04T01:09:31;31.48;;;16.48;;
30605;SDS011;17371;51.328;3.860;2022-10-04T01:12:01;36.13;;;18.40;;
30605;SDS011;17371;51.328;3.860;2022-10-04T01:14:30;33.80;;;16.65;;
30605;SDS011;17371;51.328;3.860;2022-10-04T01:17:03;38.45;;;17.08;;
30605;SDS011;17371;51.328;3.860;2022-10-04T01:19:29;37.27;;;17.50;;
30605;SDS011;17371;51.328;3.860;2022-10-04T01:21:57;35.53;;;17.30;;
30605;SDS011;17371;51.328;3.860;2022-10-04T01:24:24;28.80;;;15.93;;
30605;SDS011;17371;51.328;3.860;2022-10-04T01:26:57;31.27;;;16.95;;
30605;SDS011;17371;51.328;3.860;2022-10-04T01:29:23;32.87;;;16.83;;
30605;SDS011;17371;51.328;3.860;2022-10-04T01:31:50;33.95;;;16.23;;
30605;SDS011;17371;51.328;3.860;2022-10-04T01:34:18;32.42;;;15.73;;
30605;SDS011;17371;51.328;3.860;2022-10-04T01:36:44;40.22;;;17.00;;
30605;SDS011;17371;51.328;3.860;2022-10-04T01:39:11;39.55;;;16.33;;
30605;SDS011;17371;51.328;3.860;2022-10-04T01:41:40;29.47;;;16.03;;
30605;SDS011;17371;51.328;3.860;2022-10-04T01:44:09;32.78;;;15.95;;
30605;SDS011;17371;51.328;3.860;2022-10-04T01:46:37;32.03;;;15.80;;
30605;SDS011;17371;51.328;3.860;2022-10-04T01:49:15;31.40;;;15.18;;
30605;SDS011;17371;51.328;3.860;2022-10-04T01:51:43;34.40;;;15.85;;
30605;SDS011;17371;51.328;3.860;2022-10-04T01:54:12;29.57;;;14.53;;
30605;SDS011;17371;51.328;3.860;2022-10-04T01:56:42;30.58;;;14.57;;
30605;SDS011;17371;51.328;3.860;2022-10-04T01:59:12;37.33;;;15.10;;
30605;SDS011;17371;51.328;3.860;2022-10-04T02:01:41;33.50;;;14.20;;
30605;SDS011;17371;51.328;3.860;2022-10-04T02:04:11;27.17;;;14.48;;
30605;SDS011;17371;51.328;3.860;2022-10-04T02:06:40;32.60;;;14.13;;
30605;SDS011;17371;51.328;3.860;2022-10-04T02:09:07;36.53;;;15.07;;
30605;SDS011;17371;51.328;3.860;2022-10-04T02:11:34;36.97;;;15.30;;
30605;SDS011;17371;51.328;3.860;2022-10-04T02:14:01;40.27;;;15.00;;
30605;SDS011;17371;51.328;3.860;2022-10-04T02:16:27;36.40;;;15.52;;
30605;SDS011;17371;51.328;3.860;2022-10-04T02:18:52;46.78;;;17.70;;
30605;SDS011;17371;51.328;3.860;2022-10-04T02:21:18;53.57;;;18.60;;
30605;SDS011;17371;51.328;3.860;2022-10-04T02:23:44;57.13;;;22.13;;
30605;SDS011;17371;51.328;3.860;2022-10-04T02:26:10;72.25;;;23.45;;
30605;SDS011;17371;51.328;3.860;2022-10-04T02:28:36;76.77;;;24.47;;
30605;SDS011;17371;51.328;3.860;2022-10-04T02:31:03;81.95;;;28.20;;
30605;SDS011;17371;51.328;3.860;2022-10-04T02:33:29;96.78;;;30.35;;
30605;SDS011;17371;51.328;3.860;2022-10-04T02:35:55;94.67;;;29.97;;
30605;SDS011;17371;51.328;3.860;2022-10-04T02:38:21;95.47;;;31.05;;
30605;SDS011;17371;51.328;3.860;2022-10-04T02:40:49;111.47;;;30.67;;
30605;SDS011;17371;51.328;3.860;2022-10-04T02:43:18;98.10;;;30.30;;
30605;SDS011;17371;51.328;3.860;2022-10-04T02:45:47;86.47;;;28.58;;
30605;SDS011;17371;51.328;3.860;2022-10-04T02:48:30;73.85;;;26.08;;
30605;SDS011;17371;51.328;3.860;2022-10-04T02:51:04;72.47;;;24.33;;
30605;SDS011;17371;51.328;3.860;2022-10-04T02:53:36;66.97;;;23.60;;
30605;SDS011;17371;51.328;3.860;2022-10-04T02:56:06;53.80;;;21.13;;
30605;SDS011;17371;51.328;3.860;2022-10-04T02:58:33;57.95;;;21.42;;
30605;SDS011;17371;51.328;3.860;2022-10-04T03:01:02;50.15;;;20.58;;
30605;SDS011;17371;51.328;3.860;2022-10-04T03:03:28;50.83;;;21.00;;
30605;SDS011;17371;51.328;3.860;2022-10-04T03:05:57;61.53;;;21.60;;
30605;SDS011;17371;51.328;3.860;2022-10-04T03:08:27;60.67;;;21.10;;
30605;SDS011;17371;51.328;3.860;2022-10-04T03:10:54;54.78;;;21.10;;
30605;SDS011;17371;51.328;3.860;2022-10-04T03:13:19;53.07;;;20.70;;
30605;SDS011;17371;51.328;3.860;2022-10-04T03:15:45;57.17;;;20.90;;
30605;SDS011;17371;51.328;3.860;2022-10-04T03:18:12;52.87;;;19.60;;
30605;SDS011;17371;51.328;3.860;2022-10-04T03:20:39;54.53;;;19.40;;
30605;SDS011;17371;51.328;3.860;2022-10-04T03:23:05;51.33;;;20.15;;
30605;SDS011;17371;51.328;3.860;2022-10-04T03:25:34;52.72;;;20.13;;
30605;SDS011;17371;51.328;3.860;2022-10-04T03:28:06;54.30;;;20.33;;
30605;SDS011;17371;51.328;3.860;2022-10-04T03:30:32;57.38;;;20.58;;
30605;SDS011;17371;51.328;3.860;2022-10-04T03:32:58;49.60;;;19.63;;
30605;SDS011;17371;51.328;3.860;2022-10-04T03:35:26;50.50;;;19.40;;
30605;SDS011;17371;51.328;3.860;2022-10-04T03:37:55;53.03;;;20.08;;
30605;SDS011;17371;51.328;3.860;2022-10-04T03:40:20;50.77;;;20.20;;
30605;SDS011;17371;51.328;3.860;2022-10-04T03:42:48;58.90;;;20.20;;
30605;SDS011;17371;51.328;3.860;2022-10-04T03:45:14;54.13;;;19.58;;
30605;SDS011;17371;51.328;3.860;2022-10-04T03:47:42;48.63;;;19.30;;
30605;SDS011;17371;51.328;3.860;2022-10-04T03:50:10;51.88;;;20.02;;
30605;SDS011;17371;51.328;3.860;2022-10-04T03:52:45;52.15;;;19.95;;
30605;SDS011;17371;51.328;3.860;2022-10-04T03:55:14;55.22;;;18.58;;
30605;SDS011;17371;51.328;3.860;2022-10-04T03:57:39;51.53;;;20.00;;
30605;SDS011;17371;51.328;3.860;2022-10-04T04:00:06;68.05;;;20.10;;
30605;SDS011;17371;51.328;3.860;2022-10-04T04:02:34;50.67;;;20.05;;
30605;SDS011;17371;51.328;3.860;2022-10-04T04:05:04;50.33;;;19.27;;
30605;SDS011;17371;51.328;3.860;2022-10-04T04:07:35;59.42;;;20.30;;
30605;SDS011;17371;51.328;3.860;2022-10-04T04:10:03;55.03;;;20.27;;
30605;SDS011;17371;51.328;3.860;2022-10-04T04:12:36;63.30;;;19.92;;
30605;SDS011;17371;51.328;3.860;2022-10-04T04:15:05;53.53;;;19.33;;
30605;SDS011;17371;51.328;3.860;2022-10-04T04:17:36;47.57;;;18.23;;
30605;SDS011;17371;51.328;3.860;2022-10-04T04:20:04;59.30;;;20.33;;
30605;SDS011;17371;51.328;3.860;2022-10-04T04:22:37;53.13;;;19.95;;
30605;SDS011;17371;51.328;3.860;2022-10-04T04:25:03;57.53;;;20.70;;
30605;SDS011;17371;51.328;3.860;2022-10-04T04:27:32;61.33;;;19.45;;
30605;SDS011;17371;51.328;3.860;2022-10-04T04:30:01;51.50;;;20.00;;
30605;SDS011;17371;51.328;3.860;2022-10-04T04:32:29;64.03;;;19.67;;
30605;SDS011;17371;51.328;3.860;2022-10-04T04:34:58;61.85;;;19.42;;
30605;SDS011;17371;51.328;3.860;2022-10-04T04:37:24;52.20;;;19.13;;
30605;SDS011;17371;51.328;3.860;2022-10-04T04:39:50;51.47;;;19.27;;
30605;SDS011;17371;51.328;3.860;2022-10-04T04:42:18;45.85;;;18.52;;
30605;SDS011;17371;51.328;3.860;2022-10-04T04:44:47;55.28;;;19.42;;
30605;SDS011;17371;51.328;3.860;2022-10-04T04:47:18;50.93;;;18.37;;
30605;SDS011;17371;51.328;3.860;2022-10-04T04:49:49;40.17;;;17.17;;
30605;SDS011;17371;51.328;3.860;2022-10-04T04:52:15;44.80;;;17.92;;
30605;SDS011;17371;51.328;3.860;2022-10-04T04:54:42;46.53;;;17.33;;
30605;SDS011;17371;51.328;3.860;2022-10-04T04:57:07;37.95;;;16.90;;
30605;SDS011;17371;51.328;3.860;2022-10-04T04:59:33;43.17;;;17.97;;
30605;SDS011;17371;51.328;3.860;2022-10-04T05:02:00;48.45;;;16.45;;
30605;SDS011;17371;51.328;3.860;2022-10-04T05:04:26;42.58;;;16.23;;
30605;SDS011;17371;51.328;3.860;2022-10-04T05:06:59;45.23;;;17.17;;
30605;SDS011;17371;51.328;3.860;2022-10-04T05:09:27;47.65;;;17.25;;
30605;SDS011;17371;51.328;3.860;2022-10-04T05:11:55;40.10;;;17.60;;
30605;SDS011;17371;51.328;3.860;2022-10-04T05:14:23;45.73;;;17.00;;
30605;SDS011;17371;51.328;3.860;2022-10-04T05:16:49;55.28;;;17.52;;
30605;SDS011;17371;51.328;3.860;2022-10-04T05:19:17;46.87;;;17.13;;
30605;SDS011;17371;51.328;3.860;2022-10-04T05:21:45;47.28;;;16.50;;
30605;SDS011;17371;51.328;3.860;2022-10-04T05:24:11;41.95;;;16.13;;
30605;SDS011;17371;51.328;3.860;2022-10-04T05:26:38;40.70;;;16.73;;
30605;SDS011;17371;51.328;3.860;2022-10-04T05:29:07;43.43;;;16.43;;
30605;SDS011;17371;51.328;3.860;2022-10-04T05:31:37;52.05;;;16.75;;
30605;SDS011;17371;51.328;3.860;2022-10-04T05:34:14;46.95;;;16.50;;
30605;SDS011;17371;51.328;3.860;2022-10-04T05:36:48;42.60;;;16.35;;
30605;SDS011;17371;51.328;3.860;2022-10-04T05:39:24;43.85;;;16.05;;
30605;SDS011;17371;51.328;3.860;2022-10-04T05:41:53;42.90;;;15.47;;
30605;SDS011;17371;51.328;3.860;2022-10-04T05:44:23;39.50;;;16.10;;
30605;SDS011;17371;51.328;3.860;2022-10-04T05:46:50;40.40;;;15.65;;
30605;SDS011;17371;51.328;3.860;2022-10-04T05:49:16;40.17;;;14.93;;
30605;SDS011;17371;51.328;3.860;2022-10-04T05:51:48;33.93;;;14.60;;
30605;SDS011;17371;51.328;3.860;2022-10-04T05:54:17;46.00;;;15.75;;
30605;SDS011;17371;51.328;3.860;2022-10-04T05:59:47;41.00;;;15.73;;
30605;SDS011;17371;51.328;3.860;2022-10-04T06:02:21;41.90;;;16.42;;
30605;SDS011;17371;51.328;3.860;2022-10-04T06:04:56;40.47;;;16.80;;
30605;SDS011;17371;51.328;3.860;2022-10-04T06:07:29;45.70;;;16.38;;
30605;SDS011;17371;51.328;3.860;2022-10-04T06:10:02;45.58;;;16.63;;
30605;SDS011;17371;51.328;3.860;2022-10-04T06:12:42;51.10;;;17.97;;
30605;SDS011;17371;51.328;3.860;2022-10-04T06:15:16;55.00;;;17.92;;
30605;SDS011;17371;51.328;3.860;2022-10-04T06:17:51;48.10;;;17.77;;
30605;SDS011;17371;51.328;3.860;2022-10-04T06:20:28;56.17;;;18.05;;
30605;SDS011;17371;51.328;3.860;2022-10-04T06:23:17;51.80;;;17.42;;
30605;SDS011;17371;51.328;3.860;2022-10-04T06:25:44;57.13;;;18.60;;
30605;SDS011;17371;51.328;3.860;2022-10-04T06:28:12;53.97;;;18.77;;
30605;SDS011;17371;51.328;3.860;2022-10-04T06:30:43;61.08;;;19.45;;
30605;SDS011;17371;51.328;3.860;2022-10-04T06:33:21;56.80;;;19.10;;
30605;SDS011;17371;51.328;3.860;2022-10-04T06:35:56;54.88;;;19.45;;
30605;SDS011;17371;51.328;3.860;2022-10-04T06:38:51;58.07;;;19.20;;
30605;SDS011;17371;51.328;3.860;2022-10-04T06:41:28;77.13;;;21.08;;
30605;SDS011;17371;51.328;3.860;2022-10-04T06:44:07;69.35;;;22.15;;
30605;SDS011;17371;51.328;3.860;2022-10-04T06:46:44;70.43;;;20.92;;
30605;SDS011;17371;51.328;3.860;2022-10-04T06:52:17;83.07;;;23.10;;
30605;SDS011;17371;51.328;3.860;2022-10-04T06:55:11;83.43;;;24.08;;
30605;SDS011;17371;51.328;3.860;2022-10-04T06:57:53;94.38;;;25.05;;
30605;SDS011;17371;51.328;3.860;2022-10-04T07:00:28;99.03;;;26.88;;
30605;SDS011;17371;51.328;3.860;2022-10-04T07:02:57;100.88;;;28.50;;
30605;SDS011;17371;51.328;3.860;2022-10-04T07:05:27;107.10;;;30.17;;
30605;SDS011;17371;51.328;3.860;2022-10-04T07:07:54;115.65;;;30.70;;
30605;SDS011;17371;51.328;3.860;2022-10-04T07:10:28;113.80;;;31.67;;
30605;SDS011;17371;51.328;3.860;2022-10-04T07:13:03;130.95;;;31.67;;
30605;SDS011;17371;51.328;3.860;2022-10-04T07:15:36;140.10;;;35.75;;
30605;SDS011;17371;51.328;3.860;2022-10-04T07:18:14;140.10;;;35.50;;
30605;SDS011;17371;51.328;3.860;2022-10-04T07:20:43;148.18;;;38.22;;
30605;SDS011;17371;51.328;3.860;2022-10-04T07:23:12;159.27;;;41.58;;
30605;SDS011;17371;51.328;3.860;2022-10-04T07:25:43;167.82;;;44.05;;
30605;SDS011;17371;51.328;3.860;2022-10-04T07:28:11;167.15;;;42.92;;
30605;SDS011;17371;51.328;3.860;2022-10-04T07:30:40;180.07;;;45.03;;
30605;SDS011;17371;51.328;3.860;2022-10-04T07:33:10;185.90;;;46.08;;
30605;SDS011;17371;51.328;3.860;2022-10-04T07:35:42;194.07;;;48.83;;
30605;SDS011;17371;51.328;3.860;2022-10-04T07:38:12;182.50;;;47.20;;
30605;SDS011;17371;51.328;3.860;2022-10-04T07:40:56;179.98;;;46.10;;
30605;SDS011;17371;51.328;3.860;2022-10-04T07:43:25;159.80;;;44.77;;
30605;SDS011;17371;51.328;3.860;2022-10-04T07:45:53;169.68;;;47.67;;
30605;SDS011;17371;51.328;3.860;2022-10-04T07:48:25;164.98;;;48.20;;
30605;SDS011;17371;51.328;3.860;2022-10-04T07:50:55;153.63;;;46.77;;
30605;SDS011;17371;51.328;3.860;2022-10-04T07:53:25;162.68;;;48.83;;
30605;SDS011;17371;51.328;3.860;2022-10-04T07:55:54;156.40;;;45.58;;
30605;SDS011;17371;51.328;3.860;2022-10-04T07:58:27;137.85;;;45.60;;
30605;SDS011;17371;51.328;3.860;2022-10-04T08:01:01;139.73;;;43.90;;
30605;SDS011;17371;51.328;3.860;2022-10-04T08:03:36;134.45;;;43.25;;
30605;SDS011;17371;51.328;3.860;2022-10-04T08:06:11;138.13;;;44.97;;
30605;SDS011;17371;51.328;3.860;2022-10-04T08:08:42;126.43;;;41.60;;
30605;SDS011;17371;51.328;3.860;2022-10-04T08:11:18;127.00;;;43.67;;
30605;SDS011;17371;51.328;3.860;2022-10-04T08:13:50;116.53;;;40.50;;
30605;SDS011;17371;51.328;3.860;2022-10-04T08:16:21;115.88;;;39.42;;
30605;SDS011;17371;51.328;3.860;2022-10-04T08:18:56;115.93;;;42.65;;
30605;SDS011;17371;51.328;3.860;2022-10-04T08:21:31;116.18;;;40.40;;
30605;SDS011;17371;51.328;3.860;2022-10-04T08:24:05;110.10;;;39.20;;
30605;SDS011;17371;51.328;3.860;2022-10-04T08:26:48;110.97;;;38.43;;
30605;SDS011;17371;51.328;3.860;2022-10-04T08:29:32;100.00;;;35.08;;
30605;SDS011;17371;51.328;3.860;2022-10-04T08:32:24;114.10;;;38.47;;
30605;SDS011;17371;51.328;3.860;2022-10-04T08:34:58;112.90;;;39.78;;
30605;SDS011;17371;51.328;3.860;2022-10-04T08:37:38;99.40;;;36.92;;
30605;SDS011;17371;51.328;3.860;2022-10-04T08:40:23;101.43;;;36.40;;
30605;SDS011;17371;51.328;3.860;2022-10-04T08:43:06;89.30;;;34.95;;
30605;SDS011;17371;51.328;3.860;2022-10-04T08:48:58;66.15;;;26.95;;
30605;SDS011;17371;51.328;3.860;2022-10-04T08:51:50;46.78;;;20.10;;
30605;SDS011;17371;51.328;3.860;2022-10-04T08:54:37;38.83;;;16.27;;
30605;SDS011;17371;51.328;3.860;2022-10-04T09:00:21;34.08;;;16.30;;
30605;SDS011;17371;51.328;3.860;2022-10-04T09:03:03;27.95;;;13.65;;
30605;SDS011;17371;51.328;3.860;2022-10-04T09:06:13;25.67;;;12.73;;
30605;SDS011;17371;51.328;3.860;2022-10-04T09:09:08;32.30;;;13.67;;
30605;SDS011;17371;51.328;3.860;2022-10-04T09:12:01;27.25;;;12.90;;
30605;SDS011;17371;51.328;3.860;2022-10-04T09:14:37;23.73;;;12.05;;
30605;SDS011;17371;51.328;3.860;2022-10-04T09:17:20;22.85;;;10.63;;
30605;SDS011;17371;51.328;3.860;2022-10-04T09:19:51;20.55;;;10.05;;
30605;SDS011;17371;51.328;3.860;2022-10-04T09:22:21;24.77;;;9.83;;
30605;SDS011;17371;51.328;3.860;2022-10-04T09:25:07;17.13;;;8.98;;
30605;SDS011;17371;51.328;3.860;2022-10-04T09:27:49;19.83;;;9.75;;
30605;SDS011;17371;51.328;3.860;2022-10-04T09:30:27;18.20;;;8.75;;
30605;SDS011;17371;51.328;3.860;2022-10-04T09:36:24;22.73;;;8.40;;
30605;SDS011;17371;51.328;3.860;2022-10-04T09:39:11;17.63;;;8.95;;
30605;SDS011;17371;51.328;3.860;2022-10-04T09:41:56;18.25;;;9.45;;
30605;SDS011;17371;51.328;3.860;2022-10-04T09:44:38;22.05;;;9.70;;
30605;SDS011;17371;51.328;3.860;2022-10-04T09:47:22;17.20;;;8.93;;
30605;SDS011;17371;51.328;3.860;2022-10-04T09:52:42;19.33;;;8.95;;
30605;SDS011;17371;51.328;3.860;2022-10-04T10:00:58;15.85;;;8.98;;
30605;SDS011;17371;51.328;3.860;2022-10-04T10:03:37;18.13;;;9.73;;
30605;SDS011;17371;51.328;3.860;2022-10-04T10:06:29;15.85;;;8.77;;
30605;SDS011;17371;51.328;3.860;2022-10-04T10:11:47;15.95;;;9.07;;
30605;SDS011;17371;51.328;3.860;2022-10-04T10:14:32;19.23;;;9.05;;
30605;SDS011;17371;51.328;3.860;2022-10-04T10:17:09;15.77;;;8.03;;
30605;SDS011;17371;51.328;3.860;2022-10-04T10:19:47;17.00;;;9.18;;
30605;SDS011;17371;51.328;3.860;2022-10-04T10:22:26;16.15;;;8.80;;
30605;SDS011;17371;51.328;3.860;2022-10-04T10:25:11;16.40;;;8.65;;
30605;SDS011;17371;51.328;3.860;2022-10-04T10:27:47;16.70;;;9.23;;
30605;SDS011;17371;51.328;3.860;2022-10-04T10:30:19;20.17;;;8.93;;
30605;SDS011;17371;51.328;3.860;2022-10-04T10:32:58;19.45;;;8.93;;
30605;SDS011;17371;51.328;3.860;2022-10-04T10:39:08;19.73;;;9.18;;
30605;SDS011;17371;51.328;3.860;2022-10-04T10:41:58;17.85;;;8.95;;
30605;SDS011;17371;51.328;3.860;2022-10-04T10:44:32;18.03;;;9.30;;
30605;SDS011;17371;51.328;3.860;2022-10-04T10:49:54;22.17;;;9.55;;
30605;SDS011;17371;51.328;3.860;2022-10-04T10:55:27;13.50;;;7.65;;
30605;SDS011;17371;51.328;3.860;2022-10-04T11:01:09;21.88;;;7.85;;
30605;SDS011;17371;51.328;3.860;2022-10-04T11:03:53;17.30;;;7.82;;
30605;SDS011;17371;51.328;3.860;2022-10-04T11:06:29;17.50;;;8.10;;
30605;SDS011;17371;51.328;3.860;2022-10-04T11:09:27;19.40;;;8.02;;
30605;SDS011;17371;51.328;3.860;2022-10-04T11:14:57;14.05;;;7.88;;
30605;SDS011;17371;51.328;3.860;2022-10-04T11:20:55;15.18;;;7.70;;
30605;SDS011;17371;51.328;3.860;2022-10-04T11:26:56;12.33;;;6.93;;
30605;SDS011;17371;51.328;3.860;2022-10-04T11:29:39;13.80;;;6.93;;
30605;SDS011;17371;51.328;3.860;2022-10-04T11:32:21;14.38;;;6.40;;
30605;SDS011;17371;51.328;3.860;2022-10-04T11:38:06;11.90;;;6.78;;
30605;SDS011;17371;51.328;3.860;2022-10-04T11:40:41;12.00;;;6.33;;
30605;SDS011;17371;51.328;3.860;2022-10-04T11:43:17;16.48;;;7.05;;
30605;SDS011;17371;51.328;3.860;2022-10-04T11:46:10;10.35;;;6.07;;
30605;SDS011;17371;51.328;3.860;2022-10-04T11:48:45;13.38;;;5.72;;
30605;SDS011;17371;51.328;3.860;2022-10-04T11:51:26;11.18;;;5.72;;
30605;SDS011;17371;51.328;3.860;2022-10-04T11:54:15;9.23;;;5.93;;
30605;SDS011;17371;51.328;3.860;2022-10-04T11:57:09;12.20;;;5.97;;
30605;SDS011;17371;51.328;3.860;2022-10-04T11:59:44;8.90;;;5.38;;
30605;SDS011;17371;51.328;3.860;2022-10-04T12:02:26;9.63;;;5.50;;
30605;SDS011;17371;51.328;3.860;2022-10-04T12:05:24;11.48;;;5.57;;
30605;SDS011;17371;51.328;3.860;2022-10-04T12:08:00;16.53;;;6.03;;
30605;SDS011;17371;51.328;3.860;2022-10-04T12:10:35;11.60;;;5.93;;
30605;SDS011;17371;51.328;3.860;2022-10-04T12:13:10;13.10;;;6.07;;
30605;SDS011;17371;51.328;3.860;2022-10-04T12:15:51;12.25;;;6.05;;
30605;SDS011;17371;51.328;3.860;2022-10-04T12:23:59;10.77;;;6.40;;
30605;SDS011;17371;51.328;3.860;2022-10-04T12:26:53;10.93;;;6.30;;
30605;SDS011;17371;51.328;3.860;2022-10-04T12:29:51;9.13;;;6.25;;
30605;SDS011;17371;51.328;3.860;2022-10-04T12:32:25;16.15;;;6.28;;
30605;SDS011;17371;51.328;3.860;2022-10-04T12:34:53;8.03;;;5.60;;
30605;SDS011;17371;51.328;3.860;2022-10-04T12:37:28;12.02;;;5.68;;
30605;SDS011;17371;51.328;3.860;2022-10-04T12:40:02;14.25;;;6.32;;
30605;SDS011;17371;51.328;3.860;2022-10-04T12:42:41;10.77;;;5.95;;
30605;SDS011;17371;51.328;3.860;2022-10-04T12:45:28;9.32;;;6.00;;
30605;SDS011;17371;51.328;3.860;2022-10-04T12:48:01;9.50;;;5.90;;
30605;SDS011;17371;51.328;3.860;2022-10-04T12:50:36;10.32;;;5.95;;
30605;SDS011;17371;51.328;3.860;2022-10-04T12:53:15;8.07;;;5.40;;
30605;SDS011;17371;51.328;3.860;2022-10-04T12:55:51;10.80;;;5.57;;
30605;SDS011;17371;51.328;3.860;2022-10-04T12:58:24;10.35;;;5.50;;
30605;SDS011;17371;51.328;3.860;2022-10-04T13:00:52;10.83;;;5.50;;
30605;SDS011;17371;51.328;3.860;2022-10-04T13:03:31;10.95;;;5.15;;
30605;SDS011;17371;51.328;3.860;2022-10-04T13:06:04;9.25;;;5.13;;
30605;SDS011;17371;51.328;3.860;2022-10-04T13:11:27;9.30;;;5.65;;
30605;SDS011;17371;51.328;3.860;2022-10-04T13:14:06;11.27;;;5.33;;
30605;SDS011;17371;51.328;3.860;2022-10-04T13:16:43;9.02;;;5.90;;
30605;SDS011;17371;51.328;3.860;2022-10-04T13:19:16;10.57;;;5.90;;
30605;SDS011;17371;51.328;3.860;2022-10-04T13:21:50;8.98;;;5.72;;
30605;SDS011;17371;51.328;3.860;2022-10-04T13:24:26;10.20;;;5.95;;
30605;SDS011;17371;51.328;3.860;2022-10-04T13:26:56;9.03;;;5.27;;
30605;SDS011;17371;51.328;3.860;2022-10-04T13:29:27;13.10;;;5.72;;
30605;SDS011;17371;51.328;3.860;2022-10-04T13:31:55;11.32;;;5.88;;
30605;SDS011;17371;51.328;3.860;2022-10-04T13:34:24;11.00;;;5.82;;
30605;SDS011;17371;51.328;3.860;2022-10-04T13:36:59;8.90;;;5.18;;
30605;SDS011;17371;51.328;3.860;2022-10-04T13:39:32;8.67;;;5.13;;
30605;SDS011;17371;51.328;3.860;2022-10-04T13:42:10;10.32;;;4.57;;
30605;SDS011;17371;51.328;3.860;2022-10-04T13:44:52;8.20;;;5.00;;
30605;SDS011;17371;51.328;3.860;2022-10-04T13:50:24;8.45;;;4.88;;
30605;SDS011;17371;51.328;3.860;2022-10-04T13:52:55;9.60;;;3.87;;
30605;SDS011;17371;51.328;3.860;2022-10-04T13:55:34;5.63;;;4.00;;
30605;SDS011;17371;51.328;3.860;2022-10-04T13:58:06;7.97;;;3.90;;
30605;SDS011;17371;51.328;3.860;2022-10-04T14:00:45;9.88;;;4.88;;
30605;SDS011;17371;51.328;3.860;2022-10-04T14:03:38;8.82;;;4.40;;
30605;SDS011;17371;51.328;3.860;2022-10-04T14:06:26;13.23;;;4.53;;
30605;SDS011;17371;51.328;3.860;2022-10-04T14:09:27;7.13;;;3.80;;
30605;SDS011;17371;51.328;3.860;2022-10-04T14:12:17;7.38;;;3.90;;
30605;SDS011;17371;51.328;3.860;2022-10-04T14:21:11;7.03;;;3.93;;
30605;SDS011;17371;51.328;3.860;2022-10-04T14:24:20;8.80;;;3.80;;
30605;SDS011;17371;51.328;3.860;2022-10-04T14:27:18;5.65;;;3.65;;
30605;SDS011;17371;51.328;3.860;2022-10-04T14:29:51;8.50;;;4.28;;
30605;SDS011;17371;51.328;3.860;2022-10-04T14:32:42;8.57;;;4.30;;
30605;SDS011;17371;51.328;3.860;2022-10-04T14:35:24;7.47;;;4.30;;
30605;SDS011;17371;51.328;3.860;2022-10-04T14:40:44;8.15;;;4.90;;
30605;SDS011;17371;51.328;3.860;2022-10-04T14:43:22;9.98;;;5.18;;
30605;SDS011;17371;51.328;3.860;2022-10-04T14:46:27;10.30;;;5.30;;
30605;SDS011;17371;51.328;3.860;2022-10-04T14:49:01;7.07;;;4.93;;
30605;SDS011;17371;51.328;3.860;2022-10-04T14:51:38;7.10;;;5.18;;
30605;SDS011;17371;51.328;3.860;2022-10-04T14:54:11;8.98;;;5.32;;
30605;SDS011;17371;51.328;3.860;2022-10-04T14:56:41;9.18;;;4.30;;
30605;SDS011;17371;51.328;3.860;2022-10-04T14:59:22;10.05;;;4.63;;
30605;SDS011;17371;51.328;3.860;2022-10-04T15:05:18;9.38;;;5.25;;
30605;SDS011;17371;51.328;3.860;2022-10-04T15:07:53;9.23;;;4.90;;
30605;SDS011;17371;51.328;3.860;2022-10-04T15:10:21;9.95;;;4.70;;
30605;SDS011;17371;51.328;3.860;2022-10-04T15:12:55;9.90;;;4.93;;
30605;SDS011;17371;51.328;3.860;2022-10-04T15:15:31;10.30;;;5.03;;
30605;SDS011;17371;51.328;3.860;2022-10-04T15:18:00;9.00;;;4.32;;
30605;SDS011;17371;51.328;3.860;2022-10-04T15:20:29;10.85;;;4.53;;
30605;SDS011;17371;51.328;3.860;2022-10-04T15:23:06;11.88;;;5.25;;
30605;SDS011;17371;51.328;3.860;2022-10-04T15:25:38;9.57;;;4.88;;
30605;SDS011;17371;51.328;3.860;2022-10-04T15:28:05;10.10;;;4.70;;
30605;SDS011;17371;51.328;3.860;2022-10-04T15:30:43;13.10;;;4.90;;
30605;SDS011;17371;51.328;3.860;2022-10-04T15:33:18;7.68;;;4.60;;
30605;SDS011;17371;51.328;3.860;2022-10-04T15:36:02;7.63;;;4.65;;
30605;SDS011;17371;51.328;3.860;2022-10-04T15:38:37;13.60;;;4.80;;
30605;SDS011;17371;51.328;3.860;2022-10-04T15:41:12;12.50;;;4.23;;
30605;SDS011;17371;51.328;3.860;2022-10-04T15:43:42;7.63;;;4.78;;
30605;SDS011;17371;51.328;3.860;2022-10-04T15:51:56;6.90;;;4.10;;
30605;SDS011;17371;51.328;3.860;2022-10-04T15:54:38;9.40;;;4.30;;
30605;SDS011;17371;51.328;3.860;2022-10-04T15:57:15;9.38;;;4.43;;
30605;SDS011;17371;51.328;3.860;2022-10-04T15:59:44;13.65;;;4.70;;
30605;SDS011;17371;51.328;3.860;2022-10-04T16:05:20;11.45;;;4.38;;
30605;SDS011;17371;51.328;3.860;2022-10-04T16:07:52;10.20;;;4.10;;
30605;SDS011;17371;51.328;3.860;2022-10-04T16:10:23;7.43;;;4.22;;
30605;SDS011;17371;51.328;3.860;2022-10-04T16:13:02;8.93;;;3.92;;
30605;SDS011;17371;51.328;3.860;2022-10-04T16:15:35;8.45;;;4.22;;
30605;SDS011;17371;51.328;3.860;2022-10-04T16:18:05;8.23;;;4.65;;
30605;SDS011;17371;51.328;3.860;2022-10-04T16:20:48;7.73;;;4.60;;
30605;SDS011;17371;51.328;3.860;2022-10-04T16:26:03;8.82;;;4.47;;
30605;SDS011;17371;51.328;3.860;2022-10-04T16:28:33;7.28;;;4.32;;
30605;SDS011;17371;51.328;3.860;2022-10-04T16:31:13;5.93;;;4.25;;
30605;SDS011;17371;51.328;3.860;2022-10-04T16:33:49;8.57;;;4.50;;
30605;SDS011;17371;51.328;3.860;2022-10-04T16:36:17;8.20;;;4.63;;
30605;SDS011;17371;51.328;3.860;2022-10-04T16:38:46;9.88;;;4.90;;
30605;SDS011;17371;51.328;3.860;2022-10-04T16:41:13;8.30;;;4.80;;